sensor_id;sensor_type;location;lat;lon;timestamp;P1;durP1;ratioP1;P2;durP2;ratioP2
3698;SDS011;1865;50.918;7.092;2022-09-13T00:00:03;13.33;;;4.27;;
3698;SDS011;1865;50.918;7.092;2022-09-13T00:02:29;11.73;;;4.30;;
3698;SDS011;1865;50.918;7.092;2022-09-13T00:04:55;12.47;;;3.80;;
3698;SDS011;1865;50.918;7.092;2022-09-13T00:07:20;9.73;;;3.77;;
3698;SDS011;1865;50.918;7.092;2022-09-13T00:09:46;12.30;;;4.20;;
3698;SDS011;1865;50.918;7.092;2022-09-13T00:12:11;13.00;;;4.57;;
3698;SDS011;1865;50.918;7.092;2022-09-13T00:14:37;13.57;;;4.43;;
3698;SDS011;1865;50.918;7.092;2022-09-13T00:17:02;10.57;;;3.60;;
3698;SDS011;1865;50.918;7.092;2022-09-13T00:19:28;9.00;;;4.23;;
3698;SDS011;1865;50.918;7.092;2022-09-13T00:21:53;13.20;;;4.27;;
3698;SDS011;1865;50.918;7.092;2022-09-13T00:24:19;12.07;;;4.93;;
3698;SDS011;1865;50.918;7.092;2022-09-13T00:26:44;10.83;;;4.10;;
3698;SDS011;1865;50.918;7.092;2022-09-13T00:29:10;12.10;;;4.03;;
3698;SDS011;1865;50.918;7.092;2022-09-13T00:31:35;12.07;;;4.13;;
3698;SDS011;1865;50.918;7.092;2022-09-13T00:34:00;10.80;;;4.10;;
3698;SDS011;1865;50.918;7.092;2022-09-13T00:36:26;9.10;;;4.13;;
3698;SDS011;1865;50.918;7.092;2022-09-13T00:38:52;8.80;;;4.23;;
3698;SDS011;1865;50.918;7.092;2022-09-13T00:41:18;10.80;;;4.37;;
3698;SDS011;1865;50.918;7.092;2022-09-13T00:43:47;10.03;;;3.73;;
3698;SDS011;1865;50.918;7.092;2022-09-13T00:46:26;8.73;;;3.70;;
3698;SDS011;1865;50.918;7.092;2022-09-13T00:49:01;9.20;;;4.43;;
3698;SDS011;1865;50.918;7.092;2022-09-13T00:51:44;9.97;;;4.30;;
3698;SDS011;1865;50.918;7.092;2022-09-13T00:54:34;10.87;;;3.73;;
3698;SDS011;1865;50.918;7.092;2022-09-13T00:57:20;11.70;;;5.13;;
3698;SDS011;1865;50.918;7.092;2022-09-13T00:59:50;9.17;;;3.97;;
3698;SDS011;1865;50.918;7.092;2022-09-13T01:02:21;11.43;;;4.37;;
3698;SDS011;1865;50.918;7.092;2022-09-13T01:04:47;10.90;;;4.70;;
3698;SDS011;1865;50.918;7.092;2022-09-13T01:07:13;10.67;;;4.53;;
3698;SDS011;1865;50.918;7.092;2022-09-13T01:09:41;14.53;;;3.80;;
3698;SDS011;1865;50.918;7.092;2022-09-13T01:12:24;10.70;;;4.73;;
3698;SDS011;1865;50.918;7.092;2022-09-13T01:15:13;11.90;;;4.80;;
3698;SDS011;1865;50.918;7.092;2022-09-13T01:17:38;10.87;;;4.13;;
3698;SDS011;1865;50.918;7.092;2022-09-13T01:20:05;17.87;;;4.83;;
3698;SDS011;1865;50.918;7.092;2022-09-13T01:22:57;9.93;;;4.57;;
3698;SDS011;1865;50.918;7.092;2022-09-13T01:33:38;9.20;;;4.27;;
3698;SDS011;1865;50.918;7.092;2022-09-13T01:36:37;9.17;;;4.53;;
3698;SDS011;1865;50.918;7.092;2022-09-13T01:42:30;10.80;;;4.50;;
3698;SDS011;1865;50.918;7.092;2022-09-13T01:47:53;11.10;;;5.23;;
3698;SDS011;1865;50.918;7.092;2022-09-13T01:50:24;9.20;;;4.10;;
3698;SDS011;1865;50.918;7.092;2022-09-13T01:52:55;12.10;;;4.20;;
3698;SDS011;1865;50.918;7.092;2022-09-13T01:55:31;13.37;;;5.07;;
3698;SDS011;1865;50.918;7.092;2022-09-13T01:58:08;10.23;;;3.53;;
3698;SDS011;1865;50.918;7.092;2022-09-13T02:00:43;12.83;;;4.17;;
3698;SDS011;1865;50.918;7.092;2022-09-13T02:03:37;10.33;;;4.30;;
3698;SDS011;1865;50.918;7.092;2022-09-13T02:06:21;9.00;;;4.00;;
3698;SDS011;1865;50.918;7.092;2022-09-13T02:08:53;10.03;;;4.63;;
3698;SDS011;1865;50.918;7.092;2022-09-13T02:11:25;11.47;;;4.47;;
3698;SDS011;1865;50.918;7.092;2022-09-13T02:13:54;11.17;;;4.63;;
3698;SDS011;1865;50.918;7.092;2022-09-13T02:16:30;14.90;;;4.70;;
3698;SDS011;1865;50.918;7.092;2022-09-13T02:19:06;10.30;;;4.73;;
3698;SDS011;1865;50.918;7.092;2022-09-13T02:21:41;10.10;;;5.13;;
3698;SDS011;1865;50.918;7.092;2022-09-13T02:24:15;10.00;;;3.87;;
3698;SDS011;1865;50.918;7.092;2022-09-13T02:26:45;10.03;;;4.60;;
3698;SDS011;1865;50.918;7.092;2022-09-13T02:29:14;9.10;;;3.87;;
3698;SDS011;1865;50.918;7.092;2022-09-13T02:31:48;10.93;;;4.40;;
3698;SDS011;1865;50.918;7.092;2022-09-13T02:34:20;10.73;;;4.57;;
3698;SDS011;1865;50.918;7.092;2022-09-13T02:36:47;8.60;;;4.00;;
3698;SDS011;1865;50.918;7.092;2022-09-13T02:39:15;9.10;;;4.40;;
3698;SDS011;1865;50.918;7.092;2022-09-13T02:41:57;8.47;;;3.80;;
3698;SDS011;1865;50.918;7.092;2022-09-13T02:44:30;11.90;;;4.30;;
3698;SDS011;1865;50.918;7.092;2022-09-13T02:49:37;8.37;;;4.20;;
3698;SDS011;1865;50.918;7.092;2022-09-13T02:52:18;13.73;;;4.17;;
3698;SDS011;1865;50.918;7.092;2022-09-13T02:55:20;8.40;;;4.27;;
3698;SDS011;1865;50.918;7.092;2022-09-13T02:58:16;8.80;;;4.10;;
3698;SDS011;1865;50.918;7.092;2022-09-13T03:00:54;8.13;;;3.63;;
3698;SDS011;1865;50.918;7.092;2022-09-13T03:03:20;7.77;;;3.90;;
3698;SDS011;1865;50.918;7.092;2022-09-13T03:05:46;10.13;;;3.80;;
3698;SDS011;1865;50.918;7.092;2022-09-13T03:08:12;10.70;;;3.20;;
3698;SDS011;1865;50.918;7.092;2022-09-13T03:13:21;11.30;;;4.00;;
3698;SDS011;1865;50.918;7.092;2022-09-13T03:16:27;9.23;;;4.40;;
3698;SDS011;1865;50.918;7.092;2022-09-13T03:19:03;8.90;;;3.60;;
3698;SDS011;1865;50.918;7.092;2022-09-13T03:22:01;8.40;;;3.93;;
3698;SDS011;1865;50.918;7.092;2022-09-13T03:24:58;9.33;;;4.10;;
3698;SDS011;1865;50.918;7.092;2022-09-13T03:27:34;11.53;;;4.50;;
3698;SDS011;1865;50.918;7.092;2022-09-13T03:30:18;6.63;;;3.37;;
3698;SDS011;1865;50.918;7.092;2022-09-13T03:32:51;8.70;;;4.40;;
3698;SDS011;1865;50.918;7.092;2022-09-13T03:35:36;9.83;;;3.90;;
3698;SDS011;1865;50.918;7.092;2022-09-13T03:38:05;9.57;;;3.97;;
3698;SDS011;1865;50.918;7.092;2022-09-13T03:40:42;11.10;;;3.90;;
3698;SDS011;1865;50.918;7.092;2022-09-13T03:43:11;9.23;;;3.97;;
3698;SDS011;1865;50.918;7.092;2022-09-13T03:45:43;8.40;;;3.93;;
3698;SDS011;1865;50.918;7.092;2022-09-13T03:48:13;7.80;;;3.67;;
3698;SDS011;1865;50.918;7.092;2022-09-13T03:50:40;7.97;;;3.90;;
3698;SDS011;1865;50.918;7.092;2022-09-13T03:53:10;8.30;;;3.40;;
3698;SDS011;1865;50.918;7.092;2022-09-13T03:55:38;8.83;;;3.50;;
3698;SDS011;1865;50.918;7.092;2022-09-13T03:58:08;9.03;;;4.03;;
3698;SDS011;1865;50.918;7.092;2022-09-13T04:00:41;8.23;;;3.70;;
3698;SDS011;1865;50.918;7.092;2022-09-13T04:03:08;8.33;;;3.57;;
3698;SDS011;1865;50.918;7.092;2022-09-13T04:05:34;13.50;;;4.20;;
3698;SDS011;1865;50.918;7.092;2022-09-13T04:08:00;10.03;;;4.13;;
3698;SDS011;1865;50.918;7.092;2022-09-13T04:10:29;10.27;;;5.40;;
3698;SDS011;1865;50.918;7.092;2022-09-13T04:12:55;10.47;;;4.20;;
3698;SDS011;1865;50.918;7.092;2022-09-13T04:15:21;9.93;;;4.38;;
3698;SDS011;1865;50.918;7.092;2022-09-13T04:17:47;12.27;;;4.40;;
3698;SDS011;1865;50.918;7.092;2022-09-13T04:20:12;8.33;;;3.63;;
3698;SDS011;1865;50.918;7.092;2022-09-13T04:22:38;9.43;;;3.67;;
3698;SDS011;1865;50.918;7.092;2022-09-13T04:25:05;9.17;;;4.00;;
3698;SDS011;1865;50.918;7.092;2022-09-13T04:27:31;9.97;;;4.00;;
3698;SDS011;1865;50.918;7.092;2022-09-13T04:29:56;9.60;;;3.17;;
3698;SDS011;1865;50.918;7.092;2022-09-13T04:32:22;9.80;;;3.80;;
3698;SDS011;1865;50.918;7.092;2022-09-13T04:34:47;9.30;;;3.70;;
3698;SDS011;1865;50.918;7.092;2022-09-13T04:37:13;8.37;;;2.80;;
3698;SDS011;1865;50.918;7.092;2022-09-13T04:39:38;9.40;;;3.50;;
3698;SDS011;1865;50.918;7.092;2022-09-13T04:42:04;10.53;;;3.60;;
3698;SDS011;1865;50.918;7.092;2022-09-13T04:44:31;9.10;;;3.50;;
3698;SDS011;1865;50.918;7.092;2022-09-13T04:46:57;7.07;;;3.27;;
3698;SDS011;1865;50.918;7.092;2022-09-13T04:49:24;7.07;;;3.20;;
3698;SDS011;1865;50.918;7.092;2022-09-13T04:51:49;10.30;;;3.23;;
3698;SDS011;1865;50.918;7.092;2022-09-13T04:54:15;9.93;;;3.00;;
3698;SDS011;1865;50.918;7.092;2022-09-13T04:56:40;8.93;;;3.60;;
3698;SDS011;1865;50.918;7.092;2022-09-13T04:59:06;10.33;;;3.40;;
3698;SDS011;1865;50.918;7.092;2022-09-13T05:01:31;7.23;;;3.00;;
3698;SDS011;1865;50.918;7.092;2022-09-13T05:03:57;8.60;;;3.57;;
3698;SDS011;1865;50.918;7.092;2022-09-13T05:06:22;10.90;;;3.60;;
3698;SDS011;1865;50.918;7.092;2022-09-13T05:08:49;11.70;;;3.13;;
3698;SDS011;1865;50.918;7.092;2022-09-13T05:11:19;9.33;;;3.70;;
3698;SDS011;1865;50.918;7.092;2022-09-13T05:13:50;9.97;;;3.60;;
3698;SDS011;1865;50.918;7.092;2022-09-13T05:16:18;9.00;;;3.90;;
3698;SDS011;1865;50.918;7.092;2022-09-13T05:18:44;8.10;;;3.50;;
3698;SDS011;1865;50.918;7.092;2022-09-13T05:21:09;8.00;;;3.47;;
3698;SDS011;1865;50.918;7.092;2022-09-13T05:23:35;7.40;;;3.70;;
3698;SDS011;1865;50.918;7.092;2022-09-13T05:26:01;8.70;;;3.70;;
3698;SDS011;1865;50.918;7.092;2022-09-13T05:28:29;10.93;;;3.73;;
3698;SDS011;1865;50.918;7.092;2022-09-13T05:33:24;8.27;;;3.43;;
3698;SDS011;1865;50.918;7.092;2022-09-13T05:35:51;10.20;;;3.50;;
3698;SDS011;1865;50.918;7.092;2022-09-13T05:38:16;10.70;;;3.93;;
3698;SDS011;1865;50.918;7.092;2022-09-13T05:40:42;8.47;;;3.40;;
3698;SDS011;1865;50.918;7.092;2022-09-13T05:43:08;9.17;;;3.83;;
3698;SDS011;1865;50.918;7.092;2022-09-13T05:45:33;9.63;;;3.23;;
3698;SDS011;1865;50.918;7.092;2022-09-13T05:47:59;10.20;;;3.93;;
3698;SDS011;1865;50.918;7.092;2022-09-13T05:50:24;8.20;;;3.57;;
3698;SDS011;1865;50.918;7.092;2022-09-13T05:52:51;10.07;;;3.63;;
3698;SDS011;1865;50.918;7.092;2022-09-13T05:55:17;9.23;;;3.73;;
3698;SDS011;1865;50.918;7.092;2022-09-13T05:57:43;9.03;;;4.00;;
3698;SDS011;1865;50.918;7.092;2022-09-13T06:00:08;7.40;;;3.17;;
3698;SDS011;1865;50.918;7.092;2022-09-13T06:02:34;9.23;;;3.53;;
3698;SDS011;1865;50.918;7.092;2022-09-13T06:05:00;11.83;;;3.97;;
3698;SDS011;1865;50.918;7.092;2022-09-13T06:07:25;12.60;;;3.87;;
3698;SDS011;1865;50.918;7.092;2022-09-13T06:09:52;10.33;;;3.67;;
3698;SDS011;1865;50.918;7.092;2022-09-13T06:12:18;8.17;;;3.90;;
3698;SDS011;1865;50.918;7.092;2022-09-13T06:14:43;15.80;;;3.70;;
3698;SDS011;1865;50.918;7.092;2022-09-13T06:17:09;12.80;;;4.50;;
3698;SDS011;1865;50.918;7.092;2022-09-13T06:19:34;8.93;;;3.70;;
3698;SDS011;1865;50.918;7.092;2022-09-13T06:22:00;7.33;;;3.40;;
3698;SDS011;1865;50.918;7.092;2022-09-13T06:24:25;8.03;;;3.77;;
3698;SDS011;1865;50.918;7.092;2022-09-13T06:26:51;7.00;;;2.90;;
3698;SDS011;1865;50.918;7.092;2022-09-13T06:29:17;10.10;;;4.00;;
3698;SDS011;1865;50.918;7.092;2022-09-13T06:31:42;10.90;;;3.40;;
3698;SDS011;1865;50.918;7.092;2022-09-13T06:34:09;8.13;;;3.10;;
3698;SDS011;1865;50.918;7.092;2022-09-13T06:36:42;9.33;;;3.73;;
3698;SDS011;1865;50.918;7.092;2022-09-13T06:39:08;9.27;;;3.03;;
3698;SDS011;1865;50.918;7.092;2022-09-13T06:41:33;9.20;;;3.10;;
3698;SDS011;1865;50.918;7.092;2022-09-13T06:43:59;7.47;;;3.30;;
3698;SDS011;1865;50.918;7.092;2022-09-13T06:46:26;12.63;;;3.53;;
3698;SDS011;1865;50.918;7.092;2022-09-13T06:48:54;7.43;;;3.03;;
3698;SDS011;1865;50.918;7.092;2022-09-13T06:51:23;7.57;;;2.77;;
3698;SDS011;1865;50.918;7.092;2022-09-13T06:53:49;14.77;;;3.20;;
3698;SDS011;1865;50.918;7.092;2022-09-13T06:56:17;7.10;;;3.03;;
3698;SDS011;1865;50.918;7.092;2022-09-13T06:58:46;8.80;;;3.50;;
3698;SDS011;1865;50.918;7.092;2022-09-13T07:01:16;8.73;;;3.00;;
3698;SDS011;1865;50.918;7.092;2022-09-13T07:03:46;10.47;;;3.50;;
3698;SDS011;1865;50.918;7.092;2022-09-13T07:06:17;10.27;;;2.90;;
3698;SDS011;1865;50.918;7.092;2022-09-13T07:08:47;13.43;;;3.37;;
3698;SDS011;1865;50.918;7.092;2022-09-13T07:11:15;9.63;;;3.20;;
3698;SDS011;1865;50.918;7.092;2022-09-13T07:13:51;9.70;;;3.53;;
3698;SDS011;1865;50.918;7.092;2022-09-13T07:16:19;7.43;;;3.40;;
3698;SDS011;1865;50.918;7.092;2022-09-13T07:18:54;7.20;;;3.37;;
3698;SDS011;1865;50.918;7.092;2022-09-13T07:21:21;10.23;;;2.77;;
3698;SDS011;1865;50.918;7.092;2022-09-13T07:23:47;12.03;;;3.23;;
3698;SDS011;1865;50.918;7.092;2022-09-13T07:26:13;9.30;;;3.10;;
3698;SDS011;1865;50.918;7.092;2022-09-13T07:28:40;9.60;;;3.10;;
3698;SDS011;1865;50.918;7.092;2022-09-13T07:31:08;10.67;;;3.07;;
3698;SDS011;1865;50.918;7.092;2022-09-13T07:33:37;8.80;;;2.90;;
3698;SDS011;1865;50.918;7.092;2022-09-13T07:36:03;9.20;;;3.10;;
3698;SDS011;1865;50.918;7.092;2022-09-13T07:38:33;8.40;;;3.00;;
3698;SDS011;1865;50.918;7.092;2022-09-13T07:40:59;7.90;;;2.70;;
3698;SDS011;1865;50.918;7.092;2022-09-13T07:43:26;10.20;;;2.77;;
3698;SDS011;1865;50.918;7.092;2022-09-13T07:45:55;9.43;;;3.10;;
3698;SDS011;1865;50.918;7.092;2022-09-13T07:48:26;7.80;;;2.97;;
3698;SDS011;1865;50.918;7.092;2022-09-13T07:53:34;6.93;;;2.67;;
3698;SDS011;1865;50.918;7.092;2022-09-13T07:58:28;7.20;;;2.70;;
3698;SDS011;1865;50.918;7.092;2022-09-13T08:00:54;7.60;;;3.10;;
3698;SDS011;1865;50.918;7.092;2022-09-13T08:03:23;7.70;;;2.20;;
3698;SDS011;1865;50.918;7.092;2022-09-13T08:05:49;8.67;;;2.30;;
3698;SDS011;1865;50.918;7.092;2022-09-13T08:08:14;7.77;;;2.57;;
3698;SDS011;1865;50.918;7.092;2022-09-13T08:10:40;8.23;;;2.80;;
3698;SDS011;1865;50.918;7.092;2022-09-13T08:13:05;10.73;;;2.80;;
3698;SDS011;1865;50.918;7.092;2022-09-13T08:15:31;7.40;;;2.80;;
3698;SDS011;1865;50.918;7.092;2022-09-13T08:17:57;9.20;;;2.97;;
3698;SDS011;1865;50.918;7.092;2022-09-13T08:20:22;7.73;;;2.40;;
3698;SDS011;1865;50.918;7.092;2022-09-13T08:22:48;7.93;;;2.50;;
3698;SDS011;1865;50.918;7.092;2022-09-13T08:25:13;9.00;;;2.80;;
3698;SDS011;1865;50.918;7.092;2022-09-13T08:27:39;10.63;;;3.20;;
3698;SDS011;1865;50.918;7.092;2022-09-13T08:30:04;7.70;;;2.57;;
3698;SDS011;1865;50.918;7.092;2022-09-13T08:32:30;8.50;;;2.37;;
3698;SDS011;1865;50.918;7.092;2022-09-13T08:34:56;7.60;;;2.80;;
3698;SDS011;1865;50.918;7.092;2022-09-13T08:37:21;10.23;;;3.00;;
3698;SDS011;1865;50.918;7.092;2022-09-13T08:39:47;8.40;;;2.40;;
3698;SDS011;1865;50.918;7.092;2022-09-13T08:45:29;7.63;;;2.40;;
3698;SDS011;1865;50.918;7.092;2022-09-13T08:48:00;8.07;;;2.50;;
3698;SDS011;1865;50.918;7.092;2022-09-13T08:50:32;8.40;;;2.70;;
3698;SDS011;1865;50.918;7.092;2022-09-13T08:53:43;8.20;;;2.33;;
3698;SDS011;1865;50.918;7.092;2022-09-13T09:04:28;10.33;;;2.70;;
3698;SDS011;1865;50.918;7.092;2022-09-13T09:07:12;9.63;;;2.43;;
3698;SDS011;1865;50.918;7.092;2022-09-13T09:09:54;8.93;;;2.53;;
3698;SDS011;1865;50.918;7.092;2022-09-13T09:12:33;9.90;;;2.90;;
3698;SDS011;1865;50.918;7.092;2022-09-13T09:15:05;10.80;;;2.53;;
3698;SDS011;1865;50.918;7.092;2022-09-13T09:17:44;13.10;;;2.77;;
3698;SDS011;1865;50.918;7.092;2022-09-13T09:22:48;12.20;;;2.67;;
3698;SDS011;1865;50.918;7.092;2022-09-13T09:25:15;9.60;;;2.40;;
3698;SDS011;1865;50.918;7.092;2022-09-13T09:27:41;9.03;;;2.60;;
3698;SDS011;1865;50.918;7.092;2022-09-13T09:30:11;10.80;;;2.00;;
3698;SDS011;1865;50.918;7.092;2022-09-13T09:32:45;9.73;;;2.03;;
3698;SDS011;1865;50.918;7.092;2022-09-13T09:38:26;11.10;;;2.10;;
3698;SDS011;1865;50.918;7.092;2022-09-13T09:41:05;8.23;;;1.73;;
3698;SDS011;1865;50.918;7.092;2022-09-13T09:43:49;12.20;;;2.07;;
3698;SDS011;1865;50.918;7.092;2022-09-13T09:46:22;12.70;;;2.63;;
3698;SDS011;1865;50.918;7.092;2022-09-13T09:48:56;13.23;;;2.70;;
3698;SDS011;1865;50.918;7.092;2022-09-13T09:51:28;20.13;;;2.47;;
3698;SDS011;1865;50.918;7.092;2022-09-13T09:53:57;8.60;;;1.80;;
3698;SDS011;1865;50.918;7.092;2022-09-13T09:56:30;7.80;;;1.60;;
3698;SDS011;1865;50.918;7.092;2022-09-13T09:58:57;8.40;;;1.73;;
3698;SDS011;1865;50.918;7.092;2022-09-13T10:01:29;10.93;;;2.00;;
3698;SDS011;1865;50.918;7.092;2022-09-13T10:06:41;12.17;;;2.30;;
3698;SDS011;1865;50.918;7.092;2022-09-13T10:19:55;10.47;;;2.10;;
3698;SDS011;1865;50.918;7.092;2022-09-13T10:22:23;14.33;;;2.10;;
3698;SDS011;1865;50.918;7.092;2022-09-13T10:24:52;17.37;;;2.73;;
3698;SDS011;1865;50.918;7.092;2022-09-13T10:27:23;8.67;;;2.17;;
3698;SDS011;1865;50.918;7.092;2022-09-13T10:29:57;11.93;;;2.17;;
3698;SDS011;1865;50.918;7.092;2022-09-13T10:32:25;10.73;;;2.10;;
3698;SDS011;1865;50.918;7.092;2022-09-13T10:34:53;12.33;;;1.90;;
3698;SDS011;1865;50.918;7.092;2022-09-13T10:37:21;9.00;;;1.97;;
3698;SDS011;1865;50.918;7.092;2022-09-13T10:39:56;8.77;;;2.20;;
3698;SDS011;1865;50.918;7.092;2022-09-13T10:42:33;9.60;;;2.00;;
3698;SDS011;1865;50.918;7.092;2022-09-13T10:47:30;20.23;;;2.20;;
3698;SDS011;1865;50.918;7.092;2022-09-13T10:50:11;12.17;;;2.43;;
3698;SDS011;1865;50.918;7.092;2022-09-13T10:52:49;8.80;;;1.93;;
3698;SDS011;1865;50.918;7.092;2022-09-13T11:00:12;10.83;;;1.90;;
3698;SDS011;1865;50.918;7.092;2022-09-13T11:02:51;7.63;;;1.67;;
3698;SDS011;1865;50.918;7.092;2022-09-13T11:05:41;7.67;;;1.60;;
3698;SDS011;1865;50.918;7.092;2022-09-13T11:22:57;11.37;;;2.00;;
3698;SDS011;1865;50.918;7.092;2022-09-13T11:37:18;11.83;;;2.67;;
3698;SDS011;1865;50.918;7.092;2022-09-13T11:43:44;7.93;;;1.93;;
3698;SDS011;1865;50.918;7.092;2022-09-13T11:46:07;12.00;;;2.40;;
3698;SDS011;1865;50.918;7.092;2022-09-13T11:56:21;11.00;;;2.07;;
3698;SDS011;1865;50.918;7.092;2022-09-13T12:01:37;9.83;;;1.93;;
3698;SDS011;1865;50.918;7.092;2022-09-13T12:04:23;8.77;;;2.27;;
3698;SDS011;1865;50.918;7.092;2022-09-13T12:06:58;10.77;;;2.70;;
3698;SDS011;1865;50.918;7.092;2022-09-13T12:09:37;10.60;;;2.60;;
3698;SDS011;1865;50.918;7.092;2022-09-13T12:12:10;9.60;;;2.17;;
3698;SDS011;1865;50.918;7.092;2022-09-13T12:14:42;13.53;;;2.50;;
3698;SDS011;1865;50.918;7.092;2022-09-13T12:17:21;12.23;;;2.70;;
3698;SDS011;1865;50.918;7.092;2022-09-13T12:19:51;9.40;;;2.60;;
3698;SDS011;1865;50.918;7.092;2022-09-13T12:22:21;11.30;;;2.30;;
3698;SDS011;1865;50.918;7.092;2022-09-13T12:24:52;11.00;;;2.47;;
3698;SDS011;1865;50.918;7.092;2022-09-13T12:27:32;10.37;;;2.43;;
3698;SDS011;1865;50.918;7.092;2022-09-13T12:30:19;13.63;;;2.37;;
3698;SDS011;1865;50.918;7.092;2022-09-13T12:32:46;14.70;;;1.77;;
3698;SDS011;1865;50.918;7.092;2022-09-13T12:35:18;10.97;;;2.00;;
3698;SDS011;1865;50.918;7.092;2022-09-13T12:46:52;7.53;;;1.40;;
3698;SDS011;1865;50.918;7.092;2022-09-13T12:49:34;7.43;;;1.40;;
3698;SDS011;1865;50.918;7.092;2022-09-13T12:52:59;9.30;;;1.60;;
3698;SDS011;1865;50.918;7.092;2022-09-13T12:55:17;9.90;;;1.80;;
3698;SDS011;1865;50.918;7.092;2022-09-13T12:57:51;11.83;;;1.60;;
3698;SDS011;1865;50.918;7.092;2022-09-13T13:00:45;7.87;;;1.20;;
3698;SDS011;1865;50.918;7.092;2022-09-13T13:03:20;12.17;;;1.50;;
3698;SDS011;1865;50.918;7.092;2022-09-13T13:05:50;7.80;;;1.57;;
3698;SDS011;1865;50.918;7.092;2022-09-13T13:11:52;8.13;;;1.50;;
3698;SDS011;1865;50.918;7.092;2022-09-13T13:14:51;8.83;;;1.90;;
3698;SDS011;1865;50.918;7.092;2022-09-13T13:23:21;8.90;;;1.50;;
3698;SDS011;1865;50.918;7.092;2022-09-13T13:37:01;14.30;;;1.80;;
3698;SDS011;1865;50.918;7.092;2022-09-13T13:42:09;9.63;;;1.60;;
3698;SDS011;1865;50.918;7.092;2022-09-13T13:44:55;8.60;;;1.40;;
3698;SDS011;1865;50.918;7.092;2022-09-13T14:00:50;7.97;;;1.77;;
3698;SDS011;1865;50.918;7.092;2022-09-13T14:03:25;8.70;;;1.80;;
3698;SDS011;1865;50.918;7.092;2022-09-13T14:06:23;7.10;;;1.40;;
3698;SDS011;1865;50.918;7.092;2022-09-13T14:14:24;7.97;;;1.60;;
3698;SDS011;1865;50.918;7.092;2022-09-13T14:19:45;10.53;;;1.57;;
3698;SDS011;1865;50.918;7.092;2022-09-13T14:22:20;6.67;;;1.10;;
3698;SDS011;1865;50.918;7.092;2022-09-13T14:29:50;7.63;;;1.40;;
3698;SDS011;1865;50.918;7.092;2022-09-13T14:32:22;14.83;;;1.30;;
3698;SDS011;1865;50.918;7.092;2022-09-13T14:37:33;13.10;;;1.47;;
3698;SDS011;1865;50.918;7.092;2022-09-13T14:40:10;7.13;;;1.20;;
3698;SDS011;1865;50.918;7.092;2022-09-13T14:42:44;9.57;;;1.50;;
3698;SDS011;1865;50.918;7.092;2022-09-13T14:45:15;7.43;;;1.33;;
3698;SDS011;1865;50.918;7.092;2022-09-13T14:51:03;11.70;;;1.47;;
3698;SDS011;1865;50.918;7.092;2022-09-13T14:53:36;7.93;;;1.20;;
3698;SDS011;1865;50.918;7.092;2022-09-13T14:56:06;10.37;;;1.43;;
3698;SDS011;1865;50.918;7.092;2022-09-13T14:58:49;9.00;;;1.40;;
3698;SDS011;1865;50.918;7.092;2022-09-13T15:01:20;8.23;;;1.50;;
3698;SDS011;1865;50.918;7.092;2022-09-13T15:03:50;7.40;;;1.50;;
3698;SDS011;1865;50.918;7.092;2022-09-13T15:06:23;9.17;;;1.43;;
3698;SDS011;1865;50.918;7.092;2022-09-13T15:08:52;10.20;;;1.37;;
3698;SDS011;1865;50.918;7.092;2022-09-13T15:11:27;7.33;;;1.50;;
3698;SDS011;1865;50.918;7.092;2022-09-13T15:16:48;7.90;;;1.40;;
3698;SDS011;1865;50.918;7.092;2022-09-13T15:19:28;9.00;;;1.40;;
3698;SDS011;1865;50.918;7.092;2022-09-13T15:24:46;9.03;;;1.40;;
3698;SDS011;1865;50.918;7.092;2022-09-13T15:27:15;10.33;;;1.60;;
3698;SDS011;1865;50.918;7.092;2022-09-13T15:29:48;12.90;;;2.23;;
3698;SDS011;1865;50.918;7.092;2022-09-13T15:32:22;8.23;;;1.40;;
3698;SDS011;1865;50.918;7.092;2022-09-13T15:34:55;12.00;;;1.73;;
3698;SDS011;1865;50.918;7.092;2022-09-13T15:37:29;17.17;;;1.60;;
3698;SDS011;1865;50.918;7.092;2022-09-13T15:40:42;9.03;;;1.37;;
3698;SDS011;1865;50.918;7.092;2022-09-13T15:42:48;7.63;;;1.57;;
3698;SDS011;1865;50.918;7.092;2022-09-13T15:45:15;7.80;;;1.70;;
3698;SDS011;1865;50.918;7.092;2022-09-13T15:47:43;7.77;;;1.30;;
3698;SDS011;1865;50.918;7.092;2022-09-13T15:50:17;9.03;;;1.77;;
3698;SDS011;1865;50.918;7.092;2022-09-13T15:52:45;13.40;;;1.90;;
3698;SDS011;1865;50.918;7.092;2022-09-13T15:55:10;12.40;;;1.47;;
3698;SDS011;1865;50.918;7.092;2022-09-13T15:57:36;14.10;;;1.70;;
3698;SDS011;1865;50.918;7.092;2022-09-13T16:00:02;9.87;;;1.53;;
3698;SDS011;1865;50.918;7.092;2022-09-13T16:02:32;12.40;;;2.10;;
3698;SDS011;1865;50.918;7.092;2022-09-13T16:04:59;9.63;;;2.23;;
3698;SDS011;1865;50.918;7.092;2022-09-13T16:07:25;12.63;;;1.47;;
3698;SDS011;1865;50.918;7.092;2022-09-13T16:09:51;7.67;;;1.70;;
3698;SDS011;1865;50.918;7.092;2022-09-13T16:12:20;8.03;;;1.47;;
3698;SDS011;1865;50.918;7.092;2022-09-13T16:14:51;8.33;;;1.50;;
3698;SDS011;1865;50.918;7.092;2022-09-13T16:17:22;7.50;;;1.57;;
3698;SDS011;1865;50.918;7.092;2022-09-13T16:19:49;10.83;;;1.67;;
3698;SDS011;1865;50.918;7.092;2022-09-13T16:22:15;11.30;;;1.67;;
3698;SDS011;1865;50.918;7.092;2022-09-13T16:24:41;20.07;;;1.90;;
3698;SDS011;1865;50.918;7.092;2022-09-13T16:27:08;8.60;;;1.53;;
3698;SDS011;1865;50.918;7.092;2022-09-13T16:29:36;8.90;;;1.33;;
3698;SDS011;1865;50.918;7.092;2022-09-13T16:32:01;7.67;;;1.60;;
3698;SDS011;1865;50.918;7.092;2022-09-13T16:34:27;12.27;;;2.40;;
3698;SDS011;1865;50.918;7.092;2022-09-13T16:36:52;13.40;;;1.80;;
3698;SDS011;1865;50.918;7.092;2022-09-13T16:39:18;11.37;;;2.00;;
3698;SDS011;1865;50.918;7.092;2022-09-13T16:41:43;9.53;;;1.50;;
3698;SDS011;1865;50.918;7.092;2022-09-13T16:44:09;8.80;;;1.80;;
3698;SDS011;1865;50.918;7.092;2022-09-13T16:46:35;8.00;;;1.53;;
3698;SDS011;1865;50.918;7.092;2022-09-13T16:49:01;10.00;;;1.60;;
3698;SDS011;1865;50.918;7.092;2022-09-13T16:51:27;17.03;;;2.27;;
3698;SDS011;1865;50.918;7.092;2022-09-13T16:53:52;7.87;;;1.60;;
3698;SDS011;1865;50.918;7.092;2022-09-13T16:56:19;17.10;;;1.80;;
3698;SDS011;1865;50.918;7.092;2022-09-13T16:58:49;11.70;;;1.93;;
3698;SDS011;1865;50.918;7.092;2022-09-13T17:01:17;12.63;;;1.90;;
3698;SDS011;1865;50.918;7.092;2022-09-13T17:03:44;12.23;;;2.70;;
3698;SDS011;1865;50.918;7.092;2022-09-13T17:06:11;9.10;;;2.37;;
3698;SDS011;1865;50.918;7.092;2022-09-13T17:08:39;10.87;;;1.80;;
3698;SDS011;1865;50.918;7.092;2022-09-13T17:11:07;9.00;;;1.63;;
3698;SDS011;1865;50.918;7.092;2022-09-13T17:13:37;15.87;;;1.90;;
3698;SDS011;1865;50.918;7.092;2022-09-13T17:16:04;8.90;;;2.07;;
3698;SDS011;1865;50.918;7.092;2022-09-13T17:18:31;9.20;;;2.30;;
3698;SDS011;1865;50.918;7.092;2022-09-13T17:20:58;13.83;;;1.90;;
3698;SDS011;1865;50.918;7.092;2022-09-13T17:23:24;11.30;;;1.90;;
3698;SDS011;1865;50.918;7.092;2022-09-13T17:25:50;11.33;;;2.20;;
3698;SDS011;1865;50.918;7.092;2022-09-13T17:28:16;10.77;;;2.23;;
3698;SDS011;1865;50.918;7.092;2022-09-13T17:30:43;7.90;;;2.23;;
3698;SDS011;1865;50.918;7.092;2022-09-13T17:33:11;10.10;;;2.10;;
3698;SDS011;1865;50.918;7.092;2022-09-13T17:35:36;9.17;;;2.30;;
3698;SDS011;1865;50.918;7.092;2022-09-13T17:38:02;11.60;;;2.50;;
3698;SDS011;1865;50.918;7.092;2022-09-13T17:40:29;9.50;;;2.10;;
3698;SDS011;1865;50.918;7.092;2022-09-13T17:42:55;10.97;;;2.13;;
3698;SDS011;1865;50.918;7.092;2022-09-13T17:45:23;9.50;;;2.43;;
3698;SDS011;1865;50.918;7.092;2022-09-13T17:47:53;10.00;;;2.27;;
3698;SDS011;1865;50.918;7.092;2022-09-13T17:50:20;13.30;;;2.33;;
3698;SDS011;1865;50.918;7.092;2022-09-13T17:52:47;27.33;;;5.07;;
3698;SDS011;1865;50.918;7.092;2022-09-13T17:55:13;15.23;;;5.23;;
3698;SDS011;1865;50.918;7.092;2022-09-13T17:57:39;17.87;;;3.47;;
3698;SDS011;1865;50.918;7.092;2022-09-13T18:00:05;14.23;;;4.20;;
3698;SDS011;1865;50.918;7.092;2022-09-13T18:02:36;10.43;;;3.30;;
3698;SDS011;1865;50.918;7.092;2022-09-13T18:05:02;10.60;;;2.87;;
3698;SDS011;1865;50.918;7.092;2022-09-13T18:07:28;8.17;;;2.40;;
3698;SDS011;1865;50.918;7.092;2022-09-13T18:09:53;15.07;;;3.03;;
3698;SDS011;1865;50.918;7.092;2022-09-13T18:12:19;9.83;;;2.47;;
3698;SDS011;1865;50.918;7.092;2022-09-13T18:14:45;17.27;;;2.40;;
3698;SDS011;1865;50.918;7.092;2022-09-13T18:17:10;12.20;;;2.47;;
3698;SDS011;1865;50.918;7.092;2022-09-13T18:19:39;11.70;;;2.70;;
3698;SDS011;1865;50.918;7.092;2022-09-13T18:22:05;14.83;;;2.77;;
3698;SDS011;1865;50.918;7.092;2022-09-13T18:24:32;10.83;;;2.60;;
3698;SDS011;1865;50.918;7.092;2022-09-13T18:27:00;11.47;;;2.67;;